Time;durP1;ratioP1;P1;durP2;ratioP2;P2;SDS_P1;SDS_P2;PMS_P1;PMS_P2;Temp;Humidity;BMP_temperature;BMP_pressure;BME280_temperature;BME280_humidity;BME280_pressure;Samples;Min_cycle;Max_cycle;Signal;HPM_P1;HPM_P2
2023/08/19 00:01:40;;;;;;;12.98;6.20;;;20.80;99.90;20.90;100684.00;;;;4924269;28;107663;-66
2023/08/19 00:04:06;;;;;;;7.50;6.45;;;20.80;99.90;20.90;100687.00;;;;4916537;28;98675;-66
2023/08/19 00:06:39;;;;;;;8.45;5.82;;;20.80;99.90;20.90;100687.00;;;;4913839;28;123410;-66
2023/08/19 00:09:08;;;;;;;7.03;5.43;;;20.80;99.90;20.90;100687.00;;;;4914682;28;102826;-66
2023/08/19 00:11:35;;;;;;;10.80;6.00;;;20.70;99.90;20.90;100685.00;;;;4915104;28;93149;-66
2023/08/19 00:14:03;;;;;;;9.32;6.03;;;20.70;99.90;20.90;100688.00;;;;4917219;28;93969;-66
2023/08/19 00:16:29;;;;;;;9.32;6.15;;;20.70;99.90;20.80;100686.00;;;;4920918;28;94750;-66
2023/08/19 00:18:58;;;;;;;7.13;6.43;;;20.70;99.90;20.80;100696.00;;;;4925325;28;98225;-66
2023/08/19 00:21:24;;;;;;;7.22;5.70;;;20.60;99.90;20.80;100690.00;;;;4914501;28;93008;-66
2023/08/19 00:23:50;;;;;;;7.90;6.60;;;20.60;99.90;20.80;100701.00;;;;4913211;28;93118;-66
2023/08/19 00:26:16;;;;;;;7.90;5.60;;;20.60;99.90;20.80;100706.00;;;;4915033;28;94036;-66
2023/08/19 00:28:42;;;;;;;10.38;7.35;;;20.60;99.90;20.80;100704.00;;;;4920207;28;92780;-66
2023/08/19 00:31:08;;;;;;;8.85;6.38;;;20.60;99.90;20.70;100697.00;;;;4917160;28;93079;-66
2023/08/19 00:33:34;;;;;;;6.70;5.95;;;20.60;99.90;20.70;100686.00;;;;4921035;28;93529;-67
2023/08/19 00:36:02;;;;;;;6.13;5.45;;;20.60;99.90;20.60;100695.00;;;;4915557;28;92924;-66
2023/08/19 00:38:28;;;;;;;9.65;7.50;;;20.50;99.90;20.60;100688.00;;;;4927285;28;92760;-66
2023/08/19 00:40:53;;;;;;;11.07;6.72;;;20.50;99.90;20.60;100696.00;;;;4915053;28;110935;-67
2023/08/19 00:43:19;;;;;;;7.85;5.70;;;20.50;99.90;20.60;100683.00;;;;4915312;28;112416;-66
2023/08/19 00:45:47;;;;;;;12.10;6.70;;;20.50;99.90;20.50;100683.00;;;;4913608;28;120984;-66
2023/08/19 00:48:15;;;;;;;8.57;6.72;;;20.40;99.90;20.50;100686.00;;;;4919416;28;92940;-66
2023/08/19 00:50:42;;;;;;;10.00;7.10;;;20.40;99.90;20.50;100692.00;;;;4912874;28;94146;-66
2023/08/19 00:53:09;;;;;;;6.63;5.93;;;20.30;99.90;20.40;100683.00;;;;4913989;28;92959;-66
2023/08/19 00:55:36;;;;;;;9.98;6.05;;;20.30;99.90;20.40;100678.00;;;;4921707;28;93689;-67
2023/08/19 00:58:07;;;;;;;10.25;6.28;;;20.30;99.90;20.40;100675.00;;;;4934067;28;96730;-64
2023/08/19 01:00:34;;;;;;;8.75;6.68;;;20.20;99.90;20.30;100678.00;;;;4917346;28;92923;-65
2023/08/19 01:03:00;;;;;;;9.02;6.55;;;20.20;99.90;20.30;100675.00;;;;4915049;28;122553;-65
2023/08/19 01:05:55;;;;;;;9.77;7.43;;;20.20;99.90;20.20;100673.00;;;;4915659;28;93663;-65
2023/08/19 01:08:29;;;;;;;10.68;7.13;;;20.10;99.90;20.20;100676.00;;;;4914478;28;92132;-65
2023/08/19 01:11:16;;;;;;;13.48;6.45;;;20.10;99.90;20.10;100662.00;;;;4912215;28;94123;-65
2023/08/19 01:14:00;;;;;;;9.63;6.78;;;20.10;99.90;20.10;100677.00;;;;4913316;28;93197;-65
2023/08/19 01:16:29;;;;;;;7.78;6.93;;;20.00;99.90;20.10;100675.00;;;;4952609;28;95002;-64
2023/08/19 01:18:56;;;;;;;8.15;6.78;;;20.00;99.90;20.00;100670.00;;;;4917315;28;92814;-65
2023/08/19 01:21:22;;;;;;;8.00;7.15;;;19.90;99.90;20.00;100676.00;;;;4922319;28;108968;-65
2023/08/19 01:23:49;;;;;;;9.10;7.22;;;19.80;99.90;19.90;100677.00;;;;4914932;28;121885;-66
2023/08/19 01:26:16;;;;;;;7.78;6.13;;;19.80;99.90;19.90;100671.00;;;;4911177;28;97499;-65
2023/08/19 01:28:42;;;;;;;8.65;6.03;;;19.80;99.90;19.90;100680.00;;;;4918709;28;92946;-65
2023/08/19 01:31:08;;;;;;;7.78;5.63;;;19.80;99.90;19.90;100678.00;;;;4914965;28;93027;-65
2023/08/19 01:33:34;;;;;;;8.55;7.15;;;19.80;99.90;19.90;100667.00;;;;4925361;28;122148;-65
2023/08/19 01:36:21;;;;;;;9.32;6.63;;;19.80;99.90;19.90;100674.00;;;;4915401;28;93007;-65
2023/08/19 01:38:59;;;;;;;8.70;6.78;;;19.80;99.90;19.90;100678.00;;;;4915074;28;93018;-65
2023/08/19 01:41:28;;;;;;;7.78;6.38;;;19.70;99.90;19.90;100679.00;;;;4919533;28;93966;-66
2023/08/19 01:43:57;;;;;;;9.18;6.95;;;19.70;99.90;19.80;100676.00;;;;4919502;28;94041;-68
2023/08/19 01:46:24;;;;;;;8.43;6.38;;;19.70;99.90;19.80;100677.00;;;;4909952;28;93953;-67
2023/08/19 01:48:49;;;;;;;8.00;6.55;;;19.70;99.90;19.80;100683.00;;;;4912777;28;92966;-67
2023/08/19 01:51:15;;;;;;;9.40;7.85;;;19.70;99.90;19.80;100685.00;;;;4911322;28;108501;-67
2023/08/19 01:53:41;;;;;;;11.18;6.07;;;19.60;99.90;19.70;100685.00;;;;4925409;28;112921;-67
2023/08/19 01:56:06;;;;;;;12.05;7.95;;;19.60;99.90;19.70;100685.00;;;;4915581;28;122180;-67
2023/08/19 01:58:32;;;;;;;11.25;7.15;;;19.60;99.90;19.70;100689.00;;;;4916531;28;109471;-67
2023/08/19 02:00:58;;;;;;;11.73;7.03;;;19.60;99.90;19.70;100682.00;;;;4912622;28;107665;-67
2023/08/19 02:03:23;;;;;;;10.63;6.95;;;19.50;99.90;19.60;100675.00;;;;4913398;28;122539;-67
2023/08/19 02:05:49;;;;;;;6.40;5.80;;;19.50;99.90;19.60;100672.00;;;;4913709;28;122726;-67
2023/08/19 02:08:15;;;;;;;8.43;6.85;;;19.50;99.90;19.60;100666.00;;;;4914955;28;112475;-68
2023/08/19 02:10:43;;;;;;;9.02;6.57;;;19.50;99.90;19.60;100675.00;;;;4919230;28;109380;-68
2023/08/19 02:13:09;;;;;;;10.65;5.90;;;19.40;99.90;19.60;100667.00;;;;4917039;28;93795;-67
2023/08/19 02:15:35;;;;;;;8.60;5.95;;;19.40;99.90;19.50;100667.00;;;;4914330;28;93078;-67
2023/08/19 02:18:01;;;;;;;14.10;6.65;;;19.40;99.90;19.50;100663.00;;;;4912850;28;111573;-67
2023/08/19 02:20:27;;;;;;;7.45;6.65;;;19.40;99.90;19.50;100663.00;;;;4917008;28;93112;-67
2023/08/19 02:22:54;;;;;;;10.48;7.72;;;19.30;99.90;19.50;100662.00;;;;4911432;28;107951;-67
2023/08/19 02:25:20;;;;;;;8.48;6.25;;;19.30;99.90;19.50;100663.00;;;;4915480;28;93240;-67
2023/08/19 02:27:46;;;;;;;10.77;6.90;;;19.30;99.90;19.40;100663.00;;;;4911446;28;110775;-67
2023/08/19 02:30:12;;;;;;;8.88;6.82;;;19.30;99.90;19.40;100666.00;;;;4924487;28;98469;-67
2023/08/19 02:32:41;;;;;;;7.65;6.90;;;19.30;99.90;19.40;100656.00;;;;4910818;28;121012;-69
2023/08/19 02:35:08;;;;;;;9.13;6.78;;;19.30;99.90;19.40;100661.00;;;;4914905;28;93297;-67
2023/08/19 02:37:33;;;;;;;8.35;6.90;;;19.20;99.90;19.30;100663.00;;;;4917906;28;92684;-68
2023/08/19 02:39:59;;;;;;;8.88;6.93;;;19.20;99.90;19.30;100661.00;;;;4912411;28;110594;-68
2023/08/19 02:42:25;;;;;;;9.90;6.63;;;19.20;99.90;19.30;100664.00;;;;4912979;28;121172;-68
2023/08/19 02:44:50;;;;;;;7.70;6.03;;;19.20;99.90;19.30;100663.00;;;;4913633;28;122015;-68
2023/08/19 02:47:16;;;;;;;7.68;6.80;;;19.20;99.90;19.30;100657.00;;;;4913785;28;97091;-68
2023/08/19 02:49:43;;;;;;;11.15;6.05;;;19.20;99.90;19.30;100655.00;;;;4922560;28;110122;-68
2023/08/19 02:52:09;;;;;;;9.50;6.68;;;19.20;99.90;19.30;100657.00;;;;4914329;28;93154;-68
2023/08/19 02:54:34;;;;;;;8.98;6.72;;;19.20;99.90;19.30;100659.00;;;;4910535;28;93861;-68
2023/08/19 02:57:00;;;;;;;9.38;7.00;;;19.20;99.90;19.30;100659.00;;;;4913568;28;93366;-68
2023/08/19 02:59:26;;;;;;;10.35;6.45;;;19.20;99.90;19.30;100666.00;;;;4915264;28;93085;-68
2023/08/19 03:01:52;;;;;;;7.82;6.65;;;19.20;99.90;19.30;100659.00;;;;4912570;28;121894;-68
2023/08/19 03:04:17;;;;;;;8.95;7.43;;;19.20;99.90;19.30;100652.00;;;;4913159;28;123890;-68
2023/08/19 03:06:43;;;;;;;5.72;5.22;;;19.20;99.90;19.30;100655.00;;;;4915434;28;110479;-68
2023/08/19 03:09:09;;;;;;;6.75;6.05;;;19.20;99.90;19.30;100655.00;;;;4919274;28;107556;-68
2023/08/19 03:11:36;;;;;;;7.43;5.38;;;19.20;99.90;19.20;100659.00;;;;4913416;28;93330;-68
2023/08/19 03:14:02;;;;;;;6.85;5.70;;;19.20;99.90;19.30;100655.00;;;;4912929;28;122244;-68
2023/08/19 03:16:27;;;;;;;6.43;5.15;;;19.10;99.90;19.20;100655.00;;;;4928440;28;93545;-68
2023/08/19 03:18:53;;;;;;;5.60;5.07;;;19.10;99.90;19.20;100661.00;;;;4910499;28;93903;-68
2023/08/19 03:21:28;;;;;;;6.65;5.38;;;19.10;99.90;19.20;100659.00;;;;4912956;28;121725;-68
2023/08/19 03:23:59;;;;;;;10.50;6.20;;;19.10;99.90;19.20;100657.00;;;;4913112;28;121716;-68
2023/08/19 03:26:25;;;;;;;11.95;6.72;;;19.20;99.90;19.30;100668.00;;;;4925048;28;93026;-68
2023/08/19 03:28:51;;;;;;;10.80;6.80;;;19.20;99.90;19.20;100655.00;;;;4910328;28;93029;-68
2023/08/19 03:31:16;;;;;;;5.82;4.97;;;19.20;99.90;19.20;100660.00;;;;4916137;28;119051;-67
2023/08/19 03:33:42;;;;;;;6.22;5.20;;;19.10;99.90;19.20;100672.00;;;;4911613;28;94102;-67
2023/08/19 03:36:08;;;;;;;7.82;6.18;;;19.10;99.90;19.20;100671.00;;;;4914965;28;109828;-67
2023/08/19 03:38:52;;;;;;;7.53;6.38;;;19.10;99.90;19.10;100670.00;;;;4913846;28;95221;-67
2023/08/19 03:41:17;;;;;;;9.13;5.82;;;19.10;99.90;19.10;100673.00;;;;4913547;28;119033;-67
2023/08/19 03:43:43;;;;;;;8.50;6.13;;;19.00;99.90;19.00;100667.00;;;;4909508;28;121343;-68
2023/08/19 03:46:11;;;;;;;7.35;5.32;;;18.90;99.90;19.00;100673.00;;;;4923045;28;110360;-68
2023/08/19 03:48:37;;;;;;;9.55;7.20;;;18.90;99.90;18.90;100677.00;;;;4912945;28;107928;-68
2023/08/19 03:51:03;;;;;;;7.60;6.70;;;18.80;99.90;18.90;100672.00;;;;4909564;28;122157;-68
2023/08/19 03:53:28;;;;;;;7.28;6.05;;;18.80;99.90;18.90;100678.00;;;;4909231;28;122703;-67
2023/08/19 03:55:54;;;;;;;9.10;7.30;;;18.80;99.90;18.80;100673.00;;;;4914396;28;110539;-68
2023/08/19 03:58:19;;;;;;;9.40;7.03;;;18.70;99.90;18.80;100677.00;;;;4912348;28;109178;-67
2023/08/19 04:00:45;;;;;;;10.23;6.93;;;18.70;99.90;18.80;100678.00;;;;4914811;28;123068;-67
2023/08/19 04:03:11;;;;;;;13.80;7.43;;;18.70;99.90;18.80;100684.00;;;;4918569;28;92922;-67
2023/08/19 04:05:37;;;;;;;9.25;7.00;;;18.70;99.90;18.80;100687.00;;;;4918361;28;98972;-67
2023/08/19 04:08:03;;;;;;;9.18;6.78;;;18.60;99.90;18.70;100684.00;;;;4924344;28;94109;-67
2023/08/19 04:10:28;;;;;;;6.10;5.28;;;18.60;99.90;18.70;100689.00;;;;4913518;28;112129;-67
2023/08/19 04:12:54;;;;;;;7.65;6.05;;;18.60;99.90;18.70;100694.00;;;;4915574;28;122514;-67
2023/08/19 04:15:20;;;;;;;9.60;7.40;;;18.60;99.90;18.70;100688.00;;;;4912616;28;110100;-67
2023/08/19 04:17:47;;;;;;;11.13;7.07;;;18.60;99.90;18.70;100688.00;;;;4917378;28;108904;-66
2023/08/19 04:20:13;;;;;;;6.97;6.20;;;18.60;99.90;18.80;100697.00;;;;4916894;28;93313;-68
2023/08/19 04:22:40;;;;;;;7.82;6.40;;;18.60;99.90;18.80;100689.00;;;;4928018;28;121947;-68
2023/08/19 04:25:06;;;;;;;12.63;7.50;;;18.60;99.90;18.80;100698.00;;;;4914638;28;92063;-68
2023/08/19 04:27:32;;;;;;;8.48;6.03;;;18.70;99.90;18.80;100696.00;;;;4917746;28;93006;-68
2023/08/19 04:29:58;;;;;;;9.05;6.82;;;18.70;99.90;18.80;100695.00;;;;4917444;28;110389;-67
2023/08/19 04:32:23;;;;;;;10.57;7.53;;;18.70;99.90;18.80;100691.00;;;;4917360;28;122870;-67
2023/08/19 04:34:49;;;;;;;6.75;5.90;;;18.70;99.90;18.90;100696.00;;;;4919789;28;93175;-67
2023/08/19 04:37:15;;;;;;;9.82;6.32;;;18.70;99.90;18.90;100706.00;;;;4914550;28;94894;-67
2023/08/19 04:39:41;;;;;;;10.60;6.57;;;18.70;99.90;18.90;100705.00;;;;4911714;28;122231;-67
2023/08/19 04:42:07;;;;;;;8.15;5.75;;;18.80;99.90;18.90;100705.00;;;;4926627;28;93442;-67
2023/08/19 04:44:32;;;;;;;8.23;6.18;;;18.80;99.90;19.00;100705.00;;;;4915688;28;93063;-66
2023/08/19 04:46:58;;;;;;;6.55;5.60;;;18.80;99.90;19.00;100706.00;;;;4912778;28;108104;-67
2023/08/19 04:49:24;;;;;;;10.48;6.63;;;18.90;99.90;19.10;100707.00;;;;4914672;28;92793;-66
2023/08/19 04:51:50;;;;;;;7.55;6.50;;;19.00;99.90;19.10;100720.00;;;;4917425;28;94246;-68
2023/08/19 04:54:15;;;;;;;11.43;6.03;;;19.00;99.90;19.20;100714.00;;;;4929479;28;108395;-67
2023/08/19 04:56:41;;;;;;;8.73;7.28;;;19.10;99.90;19.30;100713.00;;;;4915774;28;100812;-67
2023/08/19 04:59:07;;;;;;;9.32;6.88;;;19.20;99.90;19.40;100716.00;;;;4915485;28;93875;-68
2023/08/19 05:01:32;;;;;;;8.10;5.78;;;19.20;99.90;19.50;100716.00;;;;4921335;28;121307;-67
2023/08/19 05:03:58;;;;;;;8.88;6.78;;;19.30;99.90;19.60;100711.00;;;;4917292;28;109909;-68
2023/08/19 05:06:24;;;;;;;8.85;6.78;;;19.40;99.90;19.80;100717.00;;;;4917869;28;108763;-67
2023/08/19 05:08:49;;;;;;;8.43;5.68;;;19.60;99.90;19.90;100715.00;;;;4915944;28;123093;-67
2023/08/19 05:11:15;;;;;;;8.00;5.78;;;19.70;99.90;20.10;100717.00;;;;4912678;28;110134;-67
2023/08/19 05:13:42;;;;;;;7.97;6.68;;;19.80;99.90;20.20;100727.00;;;;4918106;28;110175;-68
2023/08/19 05:16:08;;;;;;;11.02;7.57;;;20.00;99.90;20.40;100725.00;;;;4916581;28;92934;-68
2023/08/19 05:18:34;;;;;;;8.52;7.05;;;20.20;99.90;20.60;100725.00;;;;4921210;28;122243;-68
2023/08/19 05:20:59;;;;;;;7.38;6.00;;;20.40;99.90;20.80;100735.00;;;;4909145;28;108199;-67
2023/08/19 05:23:25;;;;;;;8.02;6.70;;;20.50;99.90;20.90;100727.00;;;;4912451;28;109062;-68
2023/08/19 05:25:50;;;;;;;12.32;8.35;;;20.70;99.90;21.10;100735.00;;;;4911476;28;107872;-67
2023/08/19 05:28:16;;;;;;;7.30;6.43;;;20.90;99.90;21.30;100733.00;;;;4912516;28;121954;-67
2023/08/19 05:30:42;;;;;;;8.77;7.00;;;21.00;99.90;21.40;100727.00;;;;4913459;28;120490;-67
2023/08/19 05:33:07;;;;;;;12.40;6.53;;;21.20;99.90;21.60;100736.00;;;;4907245;28;110894;-67
2023/08/19 05:35:33;;;;;;;7.55;5.93;;;21.40;99.90;21.80;100743.00;;;;4913976;28;92918;-68
2023/08/19 05:37:59;;;;;;;7.50;6.20;;;21.50;99.90;21.90;100739.00;;;;4922396;28;122039;-67
2023/08/19 05:40:24;;;;;;;12.73;6.68;;;21.60;99.90;22.10;100737.00;;;;4912862;28;93549;-68
2023/08/19 05:42:50;;;;;;;7.95;6.95;;;21.80;99.90;22.30;100729.00;;;;4907172;28;109569;-68
2023/08/19 05:45:16;;;;;;;11.18;5.40;;;22.00;99.90;22.50;100739.00;;;;4912432;28;107682;-68
2023/08/19 05:47:42;;;;;;;9.23;6.32;;;22.20;99.90;22.70;100738.00;;;;4913189;28;93781;-68
2023/08/19 05:50:08;;;;;;;10.00;7.03;;;22.40;99.90;22.90;100742.00;;;;4911573;28;93891;-68
2023/08/19 05:52:34;;;;;;;9.43;6.00;;;22.60;99.90;23.10;100732.00;;;;4911024;28;93012;-68
2023/08/19 05:54:59;;;;;;;7.03;5.75;;;22.80;99.90;23.30;100737.00;;;;4905724;28;108387;-68
2023/08/19 05:57:25;;;;;;;6.28;5.07;;;23.00;99.90;23.50;100749.00;;;;4921292;28;122872;-68
2023/08/19 05:59:51;;;;;;;11.20;6.75;;;23.20;99.90;23.80;100747.00;;;;4911258;28;103071;-68
2023/08/19 06:02:16;;;;;;;7.45;5.65;;;23.40;99.90;24.00;100748.00;;;;4908771;28;108504;-68
2023/08/19 06:04:43;;;;;;;6.18;5.35;;;23.70;99.90;24.20;100739.00;;;;4908263;28;107397;-68
2023/08/19 06:07:09;;;;;;;6.28;4.95;;;23.90;99.90;24.50;100745.00;;;;4909866;28;92848;-67
2023/08/19 06:09:38;;;;;;;9.13;6.18;;;24.10;99.90;24.60;100747.00;;;;4912863;28;93996;-67
2023/08/19 06:12:04;;;;;;;6.32;4.75;;;24.30;99.90;24.80;100747.00;;;;4910519;28;110848;-68
2023/08/19 06:14:30;;;;;;;5.88;4.80;;;24.50;99.90;25.00;100748.00;;;;4917967;28;93210;-68
2023/08/19 06:16:55;;;;;;;9.07;4.88;;;24.70;99.90;25.20;100752.00;;;;4914377;28;122014;-68
2023/08/19 06:19:21;;;;;;;5.50;4.90;;;24.90;99.90;25.30;100753.00;;;;4910963;28;123287;-68
2023/08/19 06:21:46;;;;;;;7.40;4.97;;;25.00;99.90;25.60;100760.00;;;;4910841;28;111087;-68
2023/08/19 06:24:12;;;;;;;9.75;5.68;;;25.20;99.90;25.70;100757.00;;;;4911864;28;107315;-68
2023/08/19 06:26:38;;;;;;;9.13;5.22;;;25.40;99.90;25.80;100759.00;;;;4908843;28;121729;-68
2023/08/19 06:29:04;;;;;;;7.22;5.72;;;25.60;99.90;26.00;100768.00;;;;4910637;28;122021;-68
2023/08/19 06:31:30;;;;;;;7.95;5.32;;;25.70;99.90;26.30;100764.00;;;;4907653;28;93104;-69
2023/08/19 06:33:56;;;;;;;7.18;5.07;;;25.90;99.90;26.50;100769.00;;;;4934394;28;94570;-68
2023/08/19 06:36:28;;;;;;;12.10;6.40;;;26.20;99.90;26.80;100758.00;;;;4907923;28;111251;-69
2023/08/19 06:39:07;;;;;;;8.38;5.43;;;26.40;99.90;27.10;100766.00;;;;4909332;28;93170;-69
2023/08/19 06:41:38;;;;;;;6.53;4.72;;;26.70;99.90;27.20;100756.00;;;;4910642;28;93838;-69
2023/08/19 06:44:07;;;;;;;5.22;4.63;;;26.90;99.90;27.50;100759.00;;;;4925973;28;93141;-68
2023/08/19 06:46:33;;;;;;;5.70;4.55;;;27.10;99.90;27.70;100766.00;;;;4912268;28;94392;-68
2023/08/19 06:48:59;;;;;;;8.35;4.97;;;27.30;99.90;27.90;100762.00;;;;4910848;28;93834;-68
2023/08/19 06:51:27;;;;;;;8.23;5.15;;;27.60;99.90;28.10;100766.00;;;;4911631;28;92161;-68
2023/08/19 06:53:54;;;;;;;9.00;4.57;;;27.70;99.90;28.30;100762.00;;;;4922868;28;92998;-68
2023/08/19 06:57:00;;;;;;;5.38;3.58;;;27.90;99.90;28.50;100766.00;;;;4912124;28;94295;-69
2023/08/19 06:59:38;;;;;;;4.82;4.10;;;28.20;99.90;28.80;100767.00;;;;4906372;28;115684;-68
2023/08/19 07:02:06;;;;;;;5.20;4.28;;;28.40;99.90;29.00;100766.00;;;;4910244;28;93220;-68
2023/08/19 07:04:33;;;;;;;5.00;3.90;;;28.60;99.80;29.20;100772.00;;;;4913728;28;92612;-67
2023/08/19 07:07:03;;;;;;;4.97;3.65;;;28.80;99.30;29.50;100774.00;;;;4909668;28;93481;-66
2023/08/19 07:09:30;;;;;;;7.22;6.15;;;29.10;98.90;29.70;100770.00;;;;4911877;28;93867;-67
2023/08/19 07:11:57;;;;;;;5.85;4.88;;;29.30;98.30;29.90;100771.00;;;;4922703;28;92960;-66
2023/08/19 07:14:25;;;;;;;6.18;4.75;;;29.50;97.40;30.10;100777.00;;;;4908092;28;93057;-66
2023/08/19 07:16:53;;;;;;;8.38;4.72;;;29.70;97.30;30.40;100776.00;;;;4909479;28;105715;-66
2023/08/19 07:19:27;;;;;;;5.70;3.92;;;30.00;96.80;30.70;100774.00;;;;4911031;28;93771;-67
2023/08/19 07:21:55;;;;;;;6.05;4.38;;;30.30;96.00;30.90;100777.00;;;;4910761;28;93096;-67
2023/08/19 07:24:22;;;;;;;14.70;9.82;;;30.50;94.80;31.10;100776.00;;;;4902248;28;94188;-67
2023/08/19 07:26:49;;;;;;;6.35;4.82;;;30.70;94.20;31.20;100779.00;;;;4911114;28;93304;-67
2023/08/19 07:29:15;;;;;;;4.53;3.42;;;30.90;92.90;31.20;100788.00;;;;4910097;28;93066;-68
2023/08/19 07:31:41;;;;;;;5.40;3.88;;;30.90;91.70;31.00;100787.00;;;;4919286;28;92898;-66
2023/08/19 07:34:07;;;;;;;4.60;3.85;;;30.70;90.60;30.90;100788.00;;;;4910833;28;101792;-67
2023/08/19 07:36:34;;;;;;;8.75;6.50;;;30.60;90.70;30.90;100793.00;;;;4910341;28;106501;-66
2023/08/19 07:39:00;;;;;;;3.83;3.22;;;30.60;91.10;31.00;100797.00;;;;4910782;28;94031;-67
2023/08/19 07:41:26;;;;;;;4.97;3.30;;;30.60;90.60;31.00;100797.00;;;;4906148;28;92300;-67
2023/08/19 07:43:52;;;;;;;8.23;5.75;;;30.70;90.10;31.10;100803.00;;;;4912178;28;108526;-67
2023/08/19 07:46:18;;;;;;;7.38;6.18;;;30.70;90.20;31.20;100797.00;;;;4913083;28;122727;-65
2023/08/19 07:48:44;;;;;;;7.70;5.07;;;30.90;90.20;31.50;100802.00;;;;4923958;28;93840;-66
2023/08/19 07:51:11;;;;;;;11.70;9.82;;;31.00;90.00;31.70;100805.00;;;;4909800;28;94167;-66
2023/08/19 07:53:37;;;;;;;4.70;3.67;;;31.30;89.50;32.10;100805.00;;;;4912746;28;93230;-66
2023/08/19 07:56:05;;;;;;;4.45;3.35;;;31.60;89.00;32.30;100805.00;;;;4912148;28;118859;-65
2023/08/19 07:58:32;;;;;;;4.28;3.13;;;31.90;87.50;32.50;100808.00;;;;4911356;28;93665;-66
2023/08/19 08:00:58;;;;;;;4.80;3.42;;;32.20;86.20;32.60;100816.00;;;;4915529;28;101733;-66
2023/08/19 08:03:24;;;;;;;3.83;2.97;;;32.20;85.20;32.70;100815.00;;;;4909994;28;97933;-66
2023/08/19 08:05:50;;;;;;;16.38;3.45;;;32.30;83.60;32.70;100811.00;;;;4913498;28;123656;-68
2023/08/19 08:08:16;;;;;;;3.40;2.70;;;32.40;82.70;32.90;100809.00;;;;4920987;28;122292;-69
2023/08/19 08:10:41;;;;;;;6.60;3.72;;;32.60;81.80;33.00;100802.00;;;;4912166;28;111644;-69
2023/08/19 08:13:08;;;;;;;3.90;2.70;;;32.70;80.90;33.20;100801.00;;;;4908025;28;108289;-68
2023/08/19 08:15:33;;;;;;;4.53;3.17;;;32.90;79.20;33.40;100807.00;;;;4914496;28;95410;-68
2023/08/19 08:17:59;;;;;;;3.78;3.28;;;33.10;76.10;33.30;100806.00;;;;4910406;28;121232;-69
2023/08/19 08:20:25;;;;;;;6.20;3.70;;;33.10;74.80;33.30;100808.00;;;;4913768;28;93002;-68
2023/08/19 08:22:50;;;;;;;19.23;9.82;;;33.10;75.20;33.40;100804.00;;;;4912232;28;93031;-68
2023/08/19 08:25:16;;;;;;;7.43;6.53;;;33.10;74.30;33.50;100801.00;;;;4908531;28;121982;-68
2023/08/19 08:27:42;;;;;;;10.32;7.57;;;33.20;74.40;33.70;100797.00;;;;4922135;28;117395;-68
2023/08/19 08:30:08;;;;;;;4.65;3.63;;;33.40;74.00;34.00;100798.00;;;;4911673;28;111182;-68
2023/08/19 08:32:33;;;;;;;5.28;4.18;;;33.60;73.20;34.30;100800.00;;;;4910690;28;92939;-69
2023/08/19 08:34:59;;;;;;;4.68;3.03;;;33.80;72.80;34.60;100806.00;;;;4906855;28;122754;-68
2023/08/19 08:37:25;;;;;;;4.13;3.33;;;34.10;71.70;34.90;100808.00;;;;4912497;28;122639;-68
2023/08/19 08:39:51;;;;;;;3.58;3.17;;;34.40;70.80;35.10;100807.00;;;;4913821;28;108936;-68
2023/08/19 08:42:17;;;;;;;3.88;3.47;;;34.60;70.00;35.40;100806.00;;;;4911692;28;93184;-69
2023/08/19 08:44:48;;;;;;;5.55;3.47;;;34.90;69.10;35.60;100806.00;;;;4921485;28;123697;-69
2023/08/19 08:47:16;;;;;;;3.42;2.35;;;35.20;66.50;35.70;100807.00;;;;4912836;28;93141;-69
2023/08/19 08:49:46;;;;;;;5.20;3.60;;;35.30;64.80;35.90;100808.00;;;;4925764;28;93150;-69
2023/08/19 08:52:12;;;;;;;4.22;3.38;;;35.40;64.50;36.00;100812.00;;;;4912864;28;98276;-69
2023/08/19 08:54:40;;;;;;;4.05;3.10;;;35.60;63.10;36.10;100814.00;;;;4909520;28;120986;-69
2023/08/19 08:57:05;;;;;;;6.95;3.85;;;35.70;62.60;36.30;100815.00;;;;4927038;28;93142;-69
2023/08/19 08:59:31;;;;;;;6.28;3.35;;;35.80;62.30;36.50;100814.00;;;;4906524;28;109260;-68
2023/08/19 09:01:58;;;;;;;6.32;2.83;;;36.00;61.00;36.70;100811.00;;;;4912833;28;108307;-69
2023/08/19 09:04:28;;;;;;;3.65;3.10;;;36.10;59.40;36.80;100818.00;;;;4922815;28;93262;-69
2023/08/19 09:07:04;;;;;;;12.15;3.67;;;36.30;58.70;37.00;100811.00;;;;4912883;28;93290;-69
2023/08/19 09:09:34;;;;;;;4.13;3.08;;;36.50;57.30;37.00;100819.00;;;;4922192;28;92887;-70
2023/08/19 09:12:04;;;;;;;4.80;3.03;;;36.50;56.60;36.90;100819.00;;;;4912771;28;108464;-70
2023/08/19 09:14:44;;;;;;;3.35;3.03;;;36.50;55.90;37.00;100821.00;;;;4909486;28;94312;-70
2023/08/19 09:17:14;;;;;;;3.88;3.03;;;36.50;56.00;37.10;100827.00;;;;4912809;28;93725;-69
2023/08/19 09:19:40;;;;;;;5.57;4.10;;;36.60;55.00;37.10;100822.00;;;;4910676;28;92187;-70
2023/08/19 09:22:15;;;;;;;6.20;4.43;;;36.60;55.20;37.30;100831.00;;;;4897805;28;92996;-70
2023/08/19 09:24:41;;;;;;;4.03;3.30;;;36.70;55.10;37.50;100820.00;;;;4910572;28;114287;-70
2023/08/19 09:27:06;;;;;;;4.05;2.92;;;36.90;55.00;37.80;100832.00;;;;4912565;28;114111;-71
2023/08/19 09:29:33;;;;;;;3.63;2.92;;;37.10;54.60;38.00;100819.00;;;;4926103;28;110311;-71
2023/08/19 09:31:59;;;;;;;4.25;3.28;;;37.40;53.70;38.20;100823.00;;;;4912658;28;93285;-70
2023/08/19 09:34:26;;;;;;;4.45;2.45;;;37.50;53.30;38.20;100822.00;;;;4910280;28;113661;-71
2023/08/19 09:36:58;;;;;;;3.90;2.67;;;37.70;52.20;38.30;100820.00;;;;4910797;28;93111;-69
2023/08/19 09:39:32;;;;;;;22.23;13.15;;;37.70;51.30;38.20;100823.00;;;;4911828;28;93497;-69
2023/08/19 09:41:58;;;;;;;49.22;19.42;;;37.70;51.20;38.20;100816.00;;;;4922623;28;101544;-71
2023/08/19 09:44:29;;;;;;;19.08;10.15;;;37.60;51.30;38.20;100818.00;;;;4909392;28;93771;-69
2023/08/19 09:46:56;;;;;;;36.95;17.58;;;37.70;51.00;38.30;100818.00;;;;4908980;28;92810;-69
2023/08/19 09:49:22;;;;;;;4.95;3.72;;;37.80;51.60;38.30;100817.00;;;;4900008;28;93642;-70
2023/08/19 09:51:56;;;;;;;5.93;3.00;;;37.70;50.30;38.10;100814.00;;;;4904154;28;93966;-68
2023/08/19 09:54:23;;;;;;;3.47;2.45;;;37.60;49.60;37.90;100813.00;;;;4928594;28;93799;-68
2023/08/19 09:56:57;;;;;;;4.68;3.15;;;37.40;49.20;37.80;100818.00;;;;4933068;28;93052;-68
2023/08/19 09:59:25;;;;;;;6.75;3.17;;;37.30;50.10;38.00;100810.00;;;;4930176;28;92988;-68
2023/08/19 10:01:52;;;;;;;3.47;2.72;;;37.30;50.40;38.10;100815.00;;;;4938019;28;93132;-68
2023/08/19 10:04:21;;;;;;;3.17;2.47;;;37.40;49.50;38.10;100813.00;;;;4927229;28;95523;-68
2023/08/19 10:06:50;;;;;;;3.85;2.22;;;37.40;49.70;38.10;100812.00;;;;4928565;28;115028;-68
2023/08/19 10:09:18;;;;;;;5.13;2.50;;;37.40;48.70;38.10;100810.00;;;;4930218;28;92380;-69
2023/08/19 10:11:45;;;;;;;2.78;2.03;;;37.40;48.30;38.10;100813.00;;;;4927415;28;92993;-68
2023/08/19 10:14:12;;;;;;;3.08;2.75;;;37.40;48.10;38.10;100817.00;;;;4930137;28;122558;-68
2023/08/19 10:16:44;;;;;;;3.15;2.72;;;37.40;48.10;38.00;100813.00;;;;4930793;28;93906;-69
2023/08/19 10:19:17;;;;;;;3.83;2.80;;;37.30;47.60;37.80;100820.00;;;;4934325;28;101100;-69
2023/08/19 10:21:44;;;;;;;2.95;2.53;;;37.20;48.00;37.80;100817.00;;;;4945414;28;93193;-69
2023/08/19 10:24:10;;;;;;;4.00;2.72;;;37.10;47.10;37.50;100805.00;;;;4925152;28;115104;-70
2023/08/19 10:26:36;;;;;;;3.03;2.47;;;36.90;47.10;37.60;100812.00;;;;4930252;28;122515;-70
2023/08/19 10:29:08;;;;;;;2.80;2.60;;;36.90;47.50;37.60;100802.00;;;;4929317;28;110537;-69
2023/08/19 10:31:35;;;;;;;3.55;2.75;;;36.90;47.30;37.50;100807.00;;;;4925787;28;109803;-70
2023/08/19 10:34:13;;;;;;;2.63;2.25;;;36.80;47.50;37.70;100812.00;;;;4926271;28;92419;-70
2023/08/19 10:36:39;;;;;;;3.22;2.17;;;36.90;47.40;37.80;100816.00;;;;4928139;28;92726;-70
2023/08/19 10:39:15;;;;;;;3.25;2.47;;;37.00;47.60;37.90;100812.00;;;;4937922;28;92750;-70
2023/08/19 10:41:40;;;;;;;2.65;2.42;;;37.20;48.00;37.90;100816.00;;;;4942894;28;93947;-70
2023/08/19 10:44:13;;;;;;;2.85;1.98;;;37.40;48.00;38.20;100806.00;;;;4926006;28;93902;-70